Ana Sayfa
METAR-TAF:

METAR-TAF

Havaalanları :

Tarawa, Kiribati

Bonriki Uluslararası Havalimanı

Enlem: 01-21N, Boylam: 172-55E, yükseklik: 2 m

Güncel hava durumu gözlemi

Rapor saat 02:00 UTC de 25 dakika önce yapıldı.
Rüzgar doğudan 15 kt
Sıcaklık 31°C
Nem 66%
Basınç 1006 hPa
Görüş mesafesi 10 km veya daha fazla
2000 ft yükseklikte az bulutlu
30000 ft yükseklikte parçalı bulutlu

METAR: NGTA 270200Z 10015KT 9999 FEW020 SCT300 31/24 Q1006

Saat: 16:25 (02:25 UTC)

Tahmin

Rapor saat 23:22 UTC de 3 saat ve 3 dakika önce yapıldı.
Ayın 27'si saat 00 UTC'den ayın 27'si saat 24 UTC'ye kadar geçerli Tahmin
Rüzgar güneydoğudan 10 kt
Görüş mesafesi 10 km veya daha fazla
2000 ft yükseklikte parçalı bulutlu

TAF: NGTA 262322Z 2700/2724 13010KT 9999 SCT020

4.000'den fazla havaalanı için hava durumu gözlemleri ve tahminleri (METAR ve TAF raporları).

Kullanılabilir istasyonlar harita üzerinde sarı ve kırmızı noktalarla gösterilir.

İstasyonun adını görmek için fareyi noktanın üzerinde gezdirin.

Sonrasında hava gözlem ve tahminlerini görmek için tıklayın.

Haritayı değiştirmek için: yaklaştırmak için siyah artı işaretli yeşil düğmeye ve uzaklaştırmak için de eksi işaretli düğmeye hızla tıklayın; bitişik haritalar için yeşil okları kullanın.


METAR-TAF: